Tanner, West Virginia
Current Conditions -  °F | °C
As of 1:53 PM on Monday 22 Dec 2014 (Local Time) from KPKB Reporting Station
Scattered Clouds Scattered Clouds  
Wind Chill: 54°   Ceiling: Unl
Heat Index: 54°   Visibility: 10mi
Dew Point: 35°   Wind: 9mph
Humidity: 49%   Direction: 120°ESE
Pressure: 29.99"   Gusts: NA
Location:  38.9756°N, 80.9915°W
Report Text: KPKB 221853Z 12008KT 10SM SCT055 12/02 A2999 RMK AO2 SLP158 T01220017
Loading
Personal Weather Stations






























Interactive Weather Map New forecast layout! Learn more

10-Day Weather Forecast

Advertisements
Track Severe Weather on mobile